Time;durP1;ratioP1;P1;durP2;ratioP2;P2;SDS_P1;SDS_P2;PMS_P1;PMS_P2;Temp;Humidity;BMP_temperature;BMP_pressure;BME280_temperature;BME280_humidity;BME280_pressure;Samples;Min_cycle;Max_cycle;Signal;HPM_P1;HPM_P2
2022/04/14 00:00:55;;;;;;;3.83;3.53;;;12.80;99.90;;;;;;5087758;28;20205;-62
2022/04/14 00:03:21;;;;;;;5.03;4.00;;;13.10;99.90;;;;;;5088031;28;20562;-61
2022/04/14 00:05:47;;;;;;;5.50;3.70;;;12.90;99.90;;;;;;5090849;28;20177;-61
2022/04/14 00:08:12;;;;;;;5.70;4.17;;;13.10;99.90;;;;;;5084966;28;20180;-61
2022/04/14 00:10:38;;;;;;;6.20;4.07;;;13.00;99.90;;;;;;5085832;28;20230;-62
2022/04/14 00:13:03;;;;;;;4.67;3.60;;;13.00;99.90;;;;;;5090513;28;20322;-61
2022/04/14 00:15:29;;;;;;;4.53;3.73;;;12.90;99.90;;;;;;5084393;28;20584;-62
2022/04/14 00:17:55;;;;;;;8.37;4.30;;;12.90;99.90;;;;;;5088930;28;20194;-62
2022/04/14 00:20:20;;;;;;;6.65;4.05;;;12.80;99.90;;;;;;5071867;28;20198;-61
2022/04/14 00:22:46;;;;;;;4.97;4.20;;;12.60;99.90;;;;;;5073071;28;20203;-62
2022/04/14 00:25:12;;;;;;;4.20;3.80;;;12.90;99.90;;;;;;5079777;28;20191;-61
2022/04/14 00:27:38;;;;;;;5.30;4.10;;;12.70;99.90;;;;;;5087101;28;20184;-62
2022/04/14 00:30:05;;;;;;;5.82;3.80;;;12.80;99.90;;;;;;5066803;28;20253;-62
2022/04/14 00:32:31;;;;;;;5.90;3.50;;;12.60;99.90;;;;;;5071837;28;20295;-62
2022/04/14 00:34:57;;;;;;;7.53;3.72;;;12.70;99.90;;;;;;5090343;28;20187;-62
2022/04/14 00:37:23;;;;;;;5.28;4.10;;;12.80;99.90;;;;;;5085891;28;20184;-62
2022/04/14 00:39:50;;;;;;;6.03;4.00;;;12.90;99.90;;;;;;5086129;28;20194;-62
2022/04/14 00:42:16;;;;;;;6.20;4.22;;;13.00;99.90;;;;;;5088401;28;20275;-62
2022/04/14 00:44:42;;;;;;;6.40;3.90;;;12.70;99.90;;;;;;5088535;28;20219;-61
2022/04/14 00:47:10;;;;;;;4.63;4.23;;;12.50;99.90;;;;;;5071805;28;20208;-62
2022/04/14 00:49:36;;;;;;;5.30;3.53;;;12.30;99.90;;;;;;5072701;28;20441;-62
2022/04/14 00:52:03;;;;;;;6.10;3.78;;;12.60;99.90;;;;;;5090041;28;20607;-62
2022/04/14 00:54:30;;;;;;;4.13;3.70;;;12.50;99.90;;;;;;5071734;28;20203;-62
2022/04/14 00:57:00;;;;;;;5.22;4.07;;;12.40;99.90;;;;;;5083410;28;20341;-62
2022/04/14 00:59:26;;;;;;;4.28;3.88;;;12.50;99.90;;;;;;5084225;28;20574;-62
2022/04/14 01:01:53;;;;;;;5.63;4.00;;;12.40;99.90;;;;;;5083705;28;20194;-62
2022/04/14 01:04:19;;;;;;;5.00;4.03;;;12.60;99.90;;;;;;5071497;28;20556;-62
2022/04/14 01:06:45;;;;;;;5.95;4.15;;;12.40;99.90;;;;;;5090310;28;20211;-62
2022/04/14 01:09:16;;;;;;;4.65;3.42;;;12.30;99.90;;;;;;5083456;28;20499;-62
2022/04/14 01:11:53;;;;;;;4.60;3.80;;;12.40;99.90;;;;;;5088849;28;20207;-62
2022/04/14 01:14:29;;;;;;;5.90;4.50;;;12.40;99.90;;;;;;5085374;28;20211;-62
2022/04/14 01:16:57;;;;;;;4.70;4.28;;;12.50;99.90;;;;;;5087497;28;20640;-62
2022/04/14 01:19:23;;;;;;;6.97;4.07;;;12.10;99.90;;;;;;5087361;28;20218;-61
2022/04/14 01:22:23;;;;;;;4.23;3.83;;;12.20;99.90;;;;;;5089106;28;20715;-61
2022/04/14 01:24:50;;;;;;;5.63;4.30;;;12.20;99.90;;;;;;5076364;28;20421;-62
2022/04/14 01:27:16;;;;;;;4.93;4.53;;;12.00;99.90;;;;;;5091802;28;20249;-62
2022/04/14 01:29:41;;;;;;;4.53;4.13;;;12.10;99.90;;;;;;5094048;28;20725;-61
2022/04/14 01:32:07;;;;;;;8.70;4.87;;;12.00;99.90;;;;;;5071374;28;20204;-62
2022/04/14 01:34:33;;;;;;;5.20;4.70;;;12.30;99.90;;;;;;5093910;28;20211;-62
2022/04/14 01:37:02;;;;;;;5.20;4.23;;;12.30;99.90;;;;;;5093324;28;20183;-61
2022/04/14 01:39:29;;;;;;;5.70;3.80;;;12.30;99.90;;;;;;5087144;28;20194;-61
2022/04/14 01:41:54;;;;;;;4.50;4.10;;;12.00;99.90;;;;;;5089204;28;20196;-61
2022/04/14 01:44:20;;;;;;;4.40;4.00;;;12.00;99.90;;;;;;5091123;28;20325;-61
2022/04/14 01:46:46;;;;;;;6.40;4.47;;;12.00;99.90;;;;;;5088225;28;20423;-61
2022/04/14 01:49:12;;;;;;;5.10;4.60;;;12.00;99.90;;;;;;5093347;28;20198;-62
2022/04/14 01:51:38;;;;;;;6.05;3.90;;;12.20;99.90;;;;;;5092525;28;20214;-61
2022/04/14 01:54:05;;;;;;;5.53;3.67;;;12.10;99.90;;;;;;5090693;28;20673;-61
2022/04/14 01:56:31;;;;;;;4.97;4.10;;;12.00;99.90;;;;;;5088804;28;20187;-62
2022/04/14 01:58:57;;;;;;;9.03;4.83;;;11.80;99.90;;;;;;5093130;28;20187;-61
2022/04/14 02:01:23;;;;;;;5.10;4.60;;;12.10;99.90;;;;;;5089424;28;20473;-61
2022/04/14 02:03:49;;;;;;;6.07;4.88;;;11.80;99.90;;;;;;5092591;28;20481;-61
2022/04/14 02:06:15;;;;;;;5.38;4.53;;;11.80;99.90;;;;;;5093622;28;20223;-61
2022/04/14 02:08:41;;;;;;;6.15;4.10;;;11.90;99.90;;;;;;5089455;28;20199;-61
2022/04/14 02:11:07;;;;;;;6.67;4.00;;;11.80;99.90;;;;;;5084170;28;20253;-62
2022/04/14 02:13:33;;;;;;;7.20;5.13;;;11.60;99.90;;;;;;5090070;28;20454;-61
2022/04/14 02:16:00;;;;;;;7.35;4.70;;;11.90;99.90;;;;;;5088960;28;20444;-60
2022/04/14 02:18:26;;;;;;;7.07;4.28;;;12.00;99.90;;;;;;5091103;28;20183;-61
2022/04/14 02:20:52;;;;;;;5.35;4.35;;;11.70;99.90;;;;;;5091973;28;20203;-61
2022/04/14 02:23:18;;;;;;;7.50;4.10;;;11.60;99.90;;;;;;5091593;28;20200;-61
2022/04/14 02:25:44;;;;;;;4.53;4.10;;;11.90;99.90;;;;;;5085412;28;20199;-62
2022/04/14 02:28:10;;;;;;;4.85;4.45;;;11.80;99.90;;;;;;5090335;28;20306;-62
2022/04/14 02:30:36;;;;;;;6.43;4.10;;;11.70;99.90;;;;;;5089364;28;20657;-61
2022/04/14 02:33:02;;;;;;;5.67;4.33;;;11.60;99.90;;;;;;5092893;28;20255;-61
2022/04/14 02:35:28;;;;;;;8.90;4.50;;;11.90;99.90;;;;;;5093018;28;20207;-62
2022/04/14 02:37:56;;;;;;;5.20;4.10;;;11.80;99.90;;;;;;5081980;28;20558;-61
2022/04/14 02:40:25;;;;;;;6.32;3.97;;;11.70;99.90;;;;;;5087500;28;20187;-61
2022/04/14 02:42:56;;;;;;;5.47;4.18;;;11.40;99.90;;;;;;5089872;28;20207;-62
2022/04/14 02:45:23;;;;;;;4.53;3.90;;;11.60;99.90;;;;;;5089390;28;20197;-61
2022/04/14 02:47:48;;;;;;;6.85;4.70;;;11.60;99.90;;;;;;5088628;28;20182;-61
2022/04/14 02:50:14;;;;;;;5.10;4.60;;;11.50;99.90;;;;;;5089216;28;20240;-61
2022/04/14 02:52:40;;;;;;;7.60;4.80;;;11.50;99.90;;;;;;5092078;28;20214;-62
2022/04/14 02:55:06;;;;;;;7.78;4.97;;;11.60;99.90;;;;;;5091867;28;20228;-62
2022/04/14 02:57:32;;;;;;;4.32;3.92;;;11.50;99.90;;;;;;5091711;28;20185;-61
2022/04/14 02:59:58;;;;;;;5.00;4.40;;;11.50;99.90;;;;;;5085030;28;20239;-61
2022/04/14 03:02:24;;;;;;;8.57;4.45;;;11.40;99.90;;;;;;5085295;28;20185;-61
2022/04/14 03:04:50;;;;;;;6.10;4.87;;;11.50;99.90;;;;;;5086740;28;20576;-61
2022/04/14 03:07:15;;;;;;;8.48;6.05;;;11.60;99.90;;;;;;5091524;28;20291;-62
2022/04/14 03:09:41;;;;;;;7.10;4.60;;;11.50;99.90;;;;;;5080584;28;20730;-61
2022/04/14 03:12:07;;;;;;;5.63;5.13;;;11.30;99.90;;;;;;5087232;28;20198;-62
2022/04/14 03:14:33;;;;;;;6.63;5.13;;;11.40;99.90;;;;;;5087053;28;20204;-62
2022/04/14 03:16:59;;;;;;;4.37;4.07;;;11.60;99.90;;;;;;5089300;28;20190;-62
2022/04/14 03:19:25;;;;;;;9.30;4.50;;;11.30;99.90;;;;;;5089984;28;20201;-62
2022/04/14 03:21:51;;;;;;;6.68;4.85;;;11.30;99.90;;;;;;5089619;28;20191;-62
2022/04/14 03:24:16;;;;;;;6.23;4.57;;;11.90;99.90;;;;;;5091124;28;20214;-62
2022/04/14 03:26:42;;;;;;;10.07;5.57;;;11.50;99.90;;;;;;5090574;28;20524;-62
2022/04/14 03:29:07;;;;;;;5.17;4.63;;;11.60;99.90;;;;;;5090778;28;20596;-62
2022/04/14 03:31:33;;;;;;;6.10;5.47;;;11.50;99.90;;;;;;5090507;28;20296;-62
2022/04/14 03:33:59;;;;;;;7.80;5.60;;;11.50;99.90;;;;;;5088715;28;20215;-61
2022/04/14 03:36:24;;;;;;;6.53;5.10;;;11.40;99.90;;;;;;5087895;28;20666;-62
2022/04/14 03:38:50;;;;;;;5.23;4.80;;;11.30;99.90;;;;;;5068032;28;20183;-61
2022/04/14 03:41:16;;;;;;;8.13;6.80;;;11.50;99.90;;;;;;5090295;28;20180;-61
2022/04/14 03:43:41;;;;;;;16.27;14.10;;;11.40;99.90;;;;;;5091287;28;20243;-61
2022/04/14 03:46:08;;;;;;;7.43;6.10;;;11.20;99.90;;;;;;5074447;28;20180;-60
2022/04/14 03:48:33;;;;;;;6.25;4.88;;;11.30;99.90;;;;;;5068393;28;20290;-60
2022/04/14 03:50:59;;;;;;;7.50;6.80;;;11.20;99.90;;;;;;5090389;28;20740;-60
2022/04/14 03:53:25;;;;;;;6.47;5.77;;;11.50;99.90;;;;;;5074032;28;20202;-60
2022/04/14 03:55:51;;;;;;;7.00;5.30;;;11.30;99.90;;;;;;5087187;28;20190;-60
2022/04/14 03:58:17;;;;;;;10.27;5.63;;;11.40;99.90;;;;;;5073866;28;20401;-61
2022/04/14 04:00:42;;;;;;;8.00;6.03;;;11.60;99.90;;;;;;5086757;28;20480;-61
2022/04/14 04:03:09;;;;;;;6.50;5.90;;;11.30;99.90;;;;;;5089188;28;20466;-60
2022/04/14 04:05:35;;;;;;;10.40;6.13;;;11.30;99.90;;;;;;5086236;28;20447;-60
2022/04/14 04:08:00;;;;;;;9.40;6.80;;;11.20;99.90;;;;;;5089504;28;20659;-60
2022/04/14 04:10:26;;;;;;;10.33;5.77;;;11.40;99.90;;;;;;5084989;28;20643;-61
2022/04/14 04:12:51;;;;;;;9.43;5.83;;;11.60;99.90;;;;;;5087836;28;20588;-60
2022/04/14 04:15:17;;;;;;;7.53;5.93;;;11.50;99.90;;;;;;5081177;28;20185;-60
2022/04/14 04:17:44;;;;;;;9.33;5.83;;;11.30;99.90;;;;;;5088987;28;20235;-60
2022/04/14 04:20:10;;;;;;;9.55;5.90;;;11.40;99.90;;;;;;5090323;28;20201;-60
2022/04/14 04:22:36;;;;;;;20.03;9.30;;;11.20;99.90;;;;;;5088061;28;20187;-60
2022/04/14 04:25:03;;;;;;;6.33;5.73;;;11.10;99.90;;;;;;5086874;28;20412;-64
2022/04/14 04:27:29;;;;;;;9.55;6.88;;;11.40;99.90;;;;;;5081052;28;20184;-62
2022/04/14 04:29:55;;;;;;;6.57;5.83;;;11.10;99.90;;;;;;5085522;28;20190;-60
2022/04/14 04:32:20;;;;;;;8.20;6.50;;;11.20;99.90;;;;;;5084250;28;20312;-60
2022/04/14 04:34:46;;;;;;;8.70;6.10;;;11.40;99.90;;;;;;5087315;28;20208;-61
2022/04/14 04:37:12;;;;;;;9.57;6.83;;;11.20;99.90;;;;;;5085450;28;20666;-61
2022/04/14 04:39:37;;;;;;;8.97;6.60;;;11.20;99.90;;;;;;5078971;28;20652;-61
2022/04/14 04:42:03;;;;;;;9.60;6.77;;;11.50;99.90;;;;;;5089771;28;20190;-61
2022/04/14 04:44:29;;;;;;;12.30;7.87;;;11.30;99.90;;;;;;5089972;28;20570;-61
2022/04/14 04:46:54;;;;;;;8.07;7.27;;;11.20;99.90;;;;;;5083248;28;20185;-61
2022/04/14 04:49:20;;;;;;;8.90;6.73;;;11.10;99.90;;;;;;5085823;28;20580;-61
2022/04/14 04:51:45;;;;;;;8.20;6.77;;;10.80;99.90;;;;;;5084630;28;20213;-62
2022/04/14 04:54:11;;;;;;;8.90;7.20;;;10.90;99.90;;;;;;5085673;28;20213;-61
2022/04/14 04:56:36;;;;;;;14.73;7.17;;;11.00;99.90;;;;;;5084353;28;20194;-60
2022/04/14 04:59:02;;;;;;;12.87;8.27;;;11.30;99.90;;;;;;5085648;28;20182;-62
2022/04/14 05:01:28;;;;;;;12.63;9.00;;;11.30;99.90;;;;;;5075192;28;20278;-61
2022/04/14 05:03:53;;;;;;;10.40;9.07;;;11.10;99.90;;;;;;5087422;28;20225;-62
2022/04/14 05:06:19;;;;;;;10.57;7.80;;;11.20;99.90;;;;;;5081340;28;20190;-61
2022/04/14 05:08:46;;;;;;;14.10;9.93;;;11.20;99.90;;;;;;5078320;28;20796;-61
2022/04/14 05:11:15;;;;;;;13.02;8.90;;;11.20;99.90;;;;;;5087748;28;20219;-62
2022/04/14 05:13:41;;;;;;;10.25;9.00;;;11.20;99.90;;;;;;5090764;28;20198;-62
2022/04/14 05:16:07;;;;;;;12.93;9.47;;;11.50;99.90;;;;;;5085950;28;20598;-61
2022/04/14 05:18:35;;;;;;;13.43;8.63;;;11.50;99.90;;;;;;5084282;28;20884;-59
2022/04/14 05:21:01;;;;;;;16.42;8.95;;;11.60;99.90;;;;;;5082745;28;20452;-62
2022/04/14 05:23:27;;;;;;;19.60;10.52;;;11.90;99.90;;;;;;5083716;28;20207;-60
2022/04/14 05:25:54;;;;;;;14.20;10.00;;;11.70;99.90;;;;;;5085496;28;20188;-60
2022/04/14 05:28:20;;;;;;;13.05;10.68;;;11.60;99.90;;;;;;5092745;28;20540;-61
2022/04/14 05:30:45;;;;;;;12.30;10.97;;;11.80;99.90;;;;;;5083351;28;20260;-61
2022/04/14 05:33:12;;;;;;;14.60;11.33;;;12.10;99.90;;;;;;5077068;28;20203;-65
2022/04/14 05:35:38;;;;;;;14.60;11.98;;;11.70;99.90;;;;;;5080323;28;20221;-67
2022/04/14 05:38:05;;;;;;;15.57;10.80;;;12.00;99.90;;;;;;5079503;28;20553;-66
2022/04/14 05:40:31;;;;;;;12.68;11.05;;;11.90;99.90;;;;;;5081047;28;20200;-64
2022/04/14 05:42:56;;;;;;;23.07;12.20;;;12.30;99.90;;;;;;5062739;28;20230;-64
2022/04/14 05:45:22;;;;;;;19.33;12.53;;;12.40;99.90;;;;;;5084966;28;20463;-67
2022/04/14 05:47:48;;;;;;;18.10;13.20;;;12.10;99.90;;;;;;5057477;28;20185;-67
2022/04/14 05:50:13;;;;;;;15.73;12.43;;;12.40;99.90;;;;;;5088059;28;20206;-61
2022/04/14 05:52:39;;;;;;;17.10;11.50;;;12.80;99.90;;;;;;5069755;28;20208;-65
2022/04/14 05:55:05;;;;;;;15.60;12.30;;;13.10;99.90;;;;;;5085013;28;20519;-62
2022/04/14 05:57:31;;;;;;;14.67;12.43;;;13.10;99.90;;;;;;5076645;28;20273;-62
2022/04/14 05:59:59;;;;;;;15.23;13.57;;;13.40;99.90;;;;;;5080428;28;20441;-62
2022/04/14 06:02:25;;;;;;;17.83;14.38;;;13.40;99.90;;;;;;5084250;28;20644;-60
2022/04/14 06:04:51;;;;;;;16.10;14.40;;;13.60;99.90;;;;;;5086579;28;20234;-63
2022/04/14 06:07:17;;;;;;;25.15;14.77;;;13.70;99.90;;;;;;5085419;28;20185;-63
2022/04/14 06:09:43;;;;;;;19.63;16.00;;;13.60;99.90;;;;;;5085329;28;20686;-62
2022/04/14 06:12:09;;;;;;;16.43;14.47;;;13.70;99.90;;;;;;5089494;28;20219;-63
2022/04/14 06:14:34;;;;;;;19.83;14.88;;;14.10;99.90;;;;;;5089314;28;20685;-63
2022/04/14 06:17:02;;;;;;;18.93;16.17;;;14.50;99.90;;;;;;5088527;28;20269;-63
2022/04/14 06:19:28;;;;;;;17.67;15.30;;;14.70;99.90;;;;;;5078594;28;20593;-63
2022/04/14 06:21:53;;;;;;;17.47;15.63;;;14.80;99.90;;;;;;5084455;28;20275;-69
2022/04/14 06:24:19;;;;;;;22.60;16.37;;;14.60;99.90;;;;;;5091846;28;20640;-67
2022/04/14 06:26:44;;;;;;;23.67;16.80;;;14.80;99.90;;;;;;5087133;28;20176;-71
2022/04/14 06:29:10;;;;;;;30.40;26.33;;;15.20;99.90;;;;;;5086008;28;20245;-66
2022/04/14 06:31:37;;;;;;;18.20;16.30;;;15.50;99.90;;;;;;5083930;28;20231;-70
2022/04/14 06:34:03;;;;;;;20.85;18.38;;;15.90;99.90;;;;;;5092711;28;20291;-69
2022/04/14 06:36:29;;;;;;;24.42;18.75;;;16.20;99.90;;;;;;5088389;28;20226;-71
2022/04/14 06:38:54;;;;;;;19.27;17.27;;;16.20;99.90;;;;;;5087038;28;20172;-70
2022/04/14 06:41:20;;;;;;;23.33;20.80;;;16.80;99.90;;;;;;5092419;28;20571;-71
2022/04/14 06:43:49;;;;;;;24.67;19.70;;;16.80;99.90;;;;;;5061406;28;20692;-69
2022/04/14 06:46:15;;;;;;;22.52;17.85;;;17.50;99.90;;;;;;5068818;28;20180;-71
2022/04/14 06:48:41;;;;;;;19.65;17.55;;;18.40;99.90;;;;;;5070975;28;20664;-72
2022/04/14 06:51:06;;;;;;;20.90;18.67;;;19.00;98.50;;;;;;5086192;28;20208;-68
2022/04/14 06:53:32;;;;;;;19.57;17.50;;;19.30;98.10;;;;;;5089311;28;20204;-68
2022/04/14 06:55:58;;;;;;;22.73;19.33;;;20.10;96.40;;;;;;5092725;28;20183;-68
2022/04/14 06:58:23;;;;;;;19.30;17.50;;;20.30;94.80;;;;;;5083406;28;20593;-72
2022/04/14 07:00:49;;;;;;;21.10;19.10;;;21.10;94.30;;;;;;5085354;28;20214;-63
2022/04/14 07:03:14;;;;;;;19.03;17.10;;;22.10;92.90;;;;;;5078005;28;20254;-67
2022/04/14 07:05:40;;;;;;;18.90;15.77;;;23.30;90.40;;;;;;5086988;28;20616;-70
2022/04/14 07:08:06;;;;;;;18.13;16.23;;;24.90;85.30;;;;;;5073309;28;20222;-70
2022/04/14 07:10:32;;;;;;;16.43;14.93;;;25.50;79.00;;;;;;5085322;28;20211;-71
2022/04/14 07:12:57;;;;;;;18.97;16.97;;;25.60;77.30;;;;;;5087927;28;21097;-70
2022/04/14 07:15:23;;;;;;;16.90;15.30;;;24.90;78.60;;;;;;5092060;28;20196;-70
2022/04/14 07:17:49;;;;;;;19.70;15.33;;;26.20;76.00;;;;;;5090076;28;20217;-68
2022/04/14 07:20:14;;;;;;;17.70;15.17;;;25.70;74.30;;;;;;5083966;28;20185;-71
2022/04/14 07:22:49;;;;;;;17.10;15.40;;;26.60;72.70;;;;;;5085155;28;20212;-69
2022/04/14 07:25:15;;;;;;;16.20;14.40;;;27.30;70.30;;;;;;5062180;28;20220;-68
2022/04/14 07:27:41;;;;;;;19.17;15.47;;;27.60;67.90;;;;;;5085085;28;20484;-68
2022/04/14 07:30:08;;;;;;;17.93;15.90;;;27.50;69.00;;;;;;5090583;28;20504;-72
2022/04/14 07:32:39;;;;;;;17.67;15.80;;;27.60;66.70;;;;;;5089026;28;20197;-66
2022/04/14 07:35:05;;;;;;;14.00;12.67;;;28.00;66.70;;;;;;5070640;28;20442;-62
2022/04/14 07:37:32;;;;;;;16.00;14.50;;;29.10;63.00;;;;;;5068997;28;20529;-59
2022/04/14 07:39:57;;;;;;;14.83;13.27;;;29.60;60.60;;;;;;5081684;28;20967;-59
2022/04/14 07:42:35;;;;;;;16.47;15.07;;;29.60;60.20;;;;;;5086088;28;20442;-59
2022/04/14 07:45:00;;;;;;;14.77;13.37;;;29.80;58.70;;;;;;5078741;28;20683;-59
2022/04/14 07:47:26;;;;;;;14.73;13.40;;;30.40;57.70;;;;;;5097970;28;20450;-59
2022/04/14 07:49:51;;;;;;;15.67;14.07;;;30.40;56.30;;;;;;5082269;28;20567;-59
2022/04/14 07:52:17;;;;;;;15.90;14.50;;;29.40;58.10;;;;;;5084515;28;20553;-59
2022/04/14 07:54:44;;;;;;;16.90;13.70;;;29.10;58.50;;;;;;5078378;28;20223;-65
2022/04/14 07:57:10;;;;;;;17.87;13.13;;;29.70;57.60;;;;;;5082071;28;20192;-66
2022/04/14 07:59:36;;;;;;;16.83;15.33;;;30.10;56.90;;;;;;5085619;28;20426;-62
2022/04/14 08:02:01;;;;;;;17.07;15.40;;;30.20;56.00;;;;;;5074840;28;20192;-63
2022/04/14 08:04:27;;;;;;;16.30;14.90;;;28.80;57.70;;;;;;5077129;28;20217;-65
2022/04/14 08:06:53;;;;;;;14.57;12.77;;;29.30;57.60;;;;;;5084338;28;20187;-63
2022/04/14 08:09:19;;;;;;;15.10;13.60;;;29.60;58.30;;;;;;5084959;28;20193;-63
2022/04/14 08:11:46;;;;;;;15.73;14.23;;;30.60;56.10;;;;;;5089766;28;20458;-62
2022/04/14 08:14:11;;;;;;;19.57;17.70;;;29.80;56.70;;;;;;5087446;28;20868;-62
2022/04/14 08:16:37;;;;;;;28.30;25.70;;;30.80;55.50;;;;;;5083643;28;20439;-62
2022/04/14 08:19:03;;;;;;;15.97;14.50;;;31.60;54.10;;;;;;5079987;28;20636;-62
2022/04/14 08:21:28;;;;;;;15.37;13.90;;;32.20;52.80;;;;;;5083999;28;20191;-62
2022/04/14 08:23:54;;;;;;;15.37;13.97;;;32.70;51.20;;;;;;5079277;28;20296;-61
2022/04/14 08:26:20;;;;;;;15.20;13.70;;;33.20;49.90;;;;;;5084826;28;20211;-62
2022/04/14 08:28:46;;;;;;;16.63;15.03;;;32.40;50.30;;;;;;5085262;28;20188;-61
2022/04/14 08:31:12;;;;;;;16.33;14.70;;;32.50;50.10;;;;;;5080990;28;20219;-62
2022/04/14 08:33:39;;;;;;;17.40;15.90;;;32.20;50.10;;;;;;5086748;28;20943;-61
2022/04/14 08:36:07;;;;;;;14.83;13.53;;;31.20;52.20;;;;;;5082092;28;20954;-59
2022/04/14 08:38:33;;;;;;;14.63;13.33;;;31.80;50.70;;;;;;5078087;28;20445;-60
2022/04/14 08:41:04;;;;;;;13.93;12.63;;;31.80;50.80;;;;;;5074979;28;20445;-61
2022/04/14 08:43:33;;;;;;;13.43;12.33;;;31.30;51.40;;;;;;5078196;28;20216;-60
2022/04/14 08:46:00;;;;;;;14.90;13.50;;;30.30;53.10;;;;;;5082002;28;20456;-60
2022/04/14 08:48:26;;;;;;;14.97;12.53;;;31.00;52.50;;;;;;5082058;28;20439;-61
2022/04/14 08:50:53;;;;;;;15.93;14.43;;;30.50;53.00;;;;;;5086767;28;21039;-62
2022/04/14 08:53:19;;;;;;;16.70;15.30;;;30.70;53.20;;;;;;5093478;28;20895;-61
2022/04/14 08:55:45;;;;;;;16.03;14.73;;;31.30;52.00;;;;;;5085115;28;20435;-61
2022/04/14 08:58:15;;;;;;;17.00;15.23;;;28.90;53.80;;;;;;5087672;28;20429;-62
2022/04/14 09:00:41;;;;;;;14.30;13.10;;;29.70;54.90;;;;;;5083140;28;20925;-62
2022/04/14 09:03:07;;;;;;;14.90;13.70;;;30.70;53.20;;;;;;5086191;28;20453;-61
2022/04/14 09:05:38;;;;;;;14.83;13.53;;;31.20;52.10;;;;;;5080421;28;20577;-61
2022/04/14 09:08:04;;;;;;;15.40;13.90;;;31.70;51.20;;;;;;5062797;28;20485;-61
2022/04/14 09:10:30;;;;;;;16.93;15.37;;;32.10;49.90;;;;;;5086941;28;20982;-61
2022/04/14 09:12:56;;;;;;;14.83;13.50;;;30.80;51.40;;;;;;5079446;28;20560;-62
2022/04/14 09:15:21;;;;;;;13.80;12.40;;;31.10;51.90;;;;;;5071638;28;20192;-62
2022/04/14 09:17:47;;;;;;;14.37;13.13;;;31.50;51.10;;;;;;5087416;28;20243;-61
2022/04/14 09:20:29;;;;;;;14.97;13.63;;;30.70;52.00;;;;;;5077119;28;20199;-61
2022/04/14 09:23:26;;;;;;;14.27;12.97;;;31.90;50.50;;;;;;5085031;28;20203;-62
2022/04/14 09:26:14;;;;;;;15.10;13.80;;;31.50;50.30;;;;;;5081127;28;20530;-61
2022/04/14 09:28:42;;;;;;;15.90;14.30;;;30.90;50.80;;;;;;5072129;28;20982;-62
2022/04/14 09:31:09;;;;;;;16.13;14.73;;;28.90;53.40;;;;;;5075174;28;20469;-61
2022/04/14 09:33:46;;;;;;;14.30;13.00;;;28.00;55.20;;;;;;5084217;28;20469;-61
2022/04/14 09:36:15;;;;;;;15.77;14.17;;;28.30;56.20;;;;;;5081915;28;20433;-61
2022/04/14 09:38:55;;;;;;;15.77;14.27;;;28.80;55.30;;;;;;5069013;28;20509;-61
2022/04/14 09:41:31;;;;;;;14.77;13.30;;;29.00;54.80;;;;;;5089926;28;20437;-61
2022/04/14 09:44:01;;;;;;;14.70;13.10;;;28.90;53.80;;;;;;5089467;28;20448;-61
2022/04/14 09:46:28;;;;;;;15.90;14.30;;;29.20;54.70;;;;;;5087747;28;20445;-61
2022/04/14 09:49:08;;;;;;;14.77;13.40;;;28.60;55.50;;;;;;5092134;28;20913;-61
2022/04/14 09:51:38;;;;;;;16.90;15.17;;;29.00;55.40;;;;;;5092184;28;21203;-61
2022/04/14 09:54:18;;;;;;;16.10;14.40;;;29.30;54.70;;;;;;5092336;28;20457;-61
2022/04/14 09:56:51;;;;;;;15.40;14.00;;;29.50;54.40;;;;;;5088308;28;20490;-61
2022/04/14 09:59:19;;;;;;;15.07;13.50;;;29.80;54.10;;;;;;5092741;28;20894;-61
2022/04/14 10:01:47;;;;;;;14.80;13.33;;;30.40;53.70;;;;;;5082234;28;20494;-61
2022/04/14 10:04:34;;;;;;;15.37;13.77;;;29.80;53.60;;;;;;5091793;28;20469;-62
2022/04/14 10:07:17;;;;;;;16.13;14.60;;;29.00;55.50;;;;;;5092147;28;20436;-62
2022/04/14 10:09:45;;;;;;;15.53;13.97;;;29.00;55.40;;;;;;5089530;28;20531;-62
2022/04/14 10:12:19;;;;;;;15.90;14.30;;;28.40;56.60;;;;;;5082488;28;20471;-63
2022/04/14 10:15:04;;;;;;;18.80;16.90;;;28.20;57.20;;;;;;5092192;28;20778;-62
2022/04/14 10:17:32;;;;;;;15.40;13.80;;;28.00;57.60;;;;;;5085357;28;20450;-61
2022/04/14 10:19:58;;;;;;;15.43;13.93;;;27.70;57.30;;;;;;5091812;28;20809;-62
2022/04/14 10:22:25;;;;;;;17.30;15.60;;;28.60;56.90;;;;;;5091927;28;20445;-61
2022/04/14 10:24:53;;;;;;;17.77;15.93;;;27.60;58.20;;;;;;5085218;28;20435;-62
2022/04/14 10:27:20;;;;;;;16.83;15.23;;;28.00;58.10;;;;;;5084338;28;20484;-63
2022/04/14 10:29:47;;;;;;;17.80;16.20;;;28.30;57.60;;;;;;5091284;28;20432;-62
2022/04/14 10:32:14;;;;;;;16.73;14.53;;;27.40;58.40;;;;;;5081116;28;20509;-62
2022/04/14 10:34:41;;;;;;;17.40;14.80;;;27.50;58.50;;;;;;5093101;28;20451;-63
2022/04/14 10:37:15;;;;;;;14.87;13.30;;;27.70;57.30;;;;;;5091427;28;20978;-62
2022/04/14 10:39:46;;;;;;;15.57;13.97;;;27.90;57.80;;;;;;5090324;28;20472;-62
2022/04/14 10:42:15;;;;;;;14.97;13.57;;;27.70;57.40;;;;;;5090749;28;20465;-62
2022/04/14 10:44:49;;;;;;;15.00;13.50;;;27.20;59.00;;;;;;5082294;28;20855;-62
2022/04/14 10:47:50;;;;;;;14.80;13.50;;;27.90;57.50;;;;;;5083666;28;20446;-62
2022/04/14 10:50:34;;;;;;;13.83;12.40;;;27.90;57.00;;;;;;5081462;28;20431;-65
2022/04/14 10:53:11;;;;;;;16.63;14.93;;;28.00;56.80;;;;;;5091960;28;20496;-62
2022/04/14 10:55:41;;;;;;;14.20;12.90;;;27.50;56.40;;;;;;5083733;28;20450;-63
2022/04/14 10:58:27;;;;;;;15.20;13.70;;;26.80;58.90;;;;;;5086109;28;20824;-61
2022/04/14 11:00:54;;;;;;;16.67;14.83;;;27.20;58.10;;;;;;5086731;28;20559;-63
2022/04/14 11:03:20;;;;;;;14.73;13.37;;;28.10;56.70;;;;;;5090829;28;21056;-62
2022/04/14 11:05:50;;;;;;;16.00;14.17;;;28.50;56.70;;;;;;5090591;28;20853;-62
2022/04/14 11:08:31;;;;;;;13.93;12.43;;;28.40;56.50;;;;;;5092004;28;20481;-62
2022/04/14 11:11:11;;;;;;;14.70;13.07;;;28.70;55.30;;;;;;5084490;28;20471;-62
2022/04/14 11:13:52;;;;;;;15.40;13.90;;;28.40;54.80;;;;;;5090439;28;20462;-62
2022/04/14 11:16:39;;;;;;;16.70;15.07;;;28.10;57.00;;;;;;5080823;28;20499;-61
2022/04/14 11:19:21;;;;;;;14.83;13.47;;;27.60;57.40;;;;;;5089970;28;20789;-62
2022/04/14 11:22:14;;;;;;;14.83;13.47;;;27.00;59.40;;;;;;5090566;28;20954;-62
2022/04/14 11:24:41;;;;;;;19.03;14.13;;;27.50;58.30;;;;;;5081815;28;20967;-61
2022/04/14 11:27:26;;;;;;;15.40;14.00;;;27.40;58.60;;;;;;5089465;28;20462;-62
2022/04/14 11:29:57;;;;;;;15.93;13.40;;;27.20;58.70;;;;;;5090716;28;20441;-62
2022/04/14 11:32:38;;;;;;;15.87;14.47;;;27.00;59.30;;;;;;5080255;28;20475;-62
2022/04/14 11:35:18;;;;;;;16.27;14.97;;;27.20;59.20;;;;;;5093919;28;20524;-61
2022/04/14 11:37:45;;;;;;;15.53;13.30;;;26.50;58.90;;;;;;5090499;28;20425;-62
2022/04/14 11:40:16;;;;;;;14.50;13.10;;;27.10;58.40;;;;;;5087930;28;21002;-61
2022/04/14 11:42:46;;;;;;;17.07;13.40;;;26.70;56.90;;;;;;5095483;28;20997;-61
2022/04/14 11:45:12;;;;;;;16.73;12.77;;;27.50;57.70;;;;;;5089867;28;20433;-62
2022/04/14 11:47:38;;;;;;;13.43;12.23;;;27.50;56.40;;;;;;5084596;28;20920;-62
2022/04/14 11:50:06;;;;;;;14.37;12.33;;;27.60;56.60;;;;;;5089933;28;20203;-62
2022/04/14 11:52:33;;;;;;;13.87;12.43;;;27.60;57.00;;;;;;5089265;28;20497;-62
2022/04/14 11:55:00;;;;;;;13.97;12.43;;;27.60;57.20;;;;;;5076788;28;20431;-62
2022/04/14 11:57:29;;;;;;;28.37;23.70;;;27.50;58.20;;;;;;5083829;28;20439;-63
2022/04/14 12:00:10;;;;;;;16.57;14.97;;;26.70;58.80;;;;;;5090572;28;20517;-63
2022/04/14 12:02:36;;;;;;;15.60;14.20;;;26.00;60.50;;;;;;5086345;28;20441;-62
2022/04/14 12:05:02;;;;;;;16.27;14.27;;;25.70;60.90;;;;;;5090398;28;20860;-62
2022/04/14 12:07:32;;;;;;;14.37;13.00;;;25.70;61.80;;;;;;5089909;28;20439;-62
2022/04/14 12:10:00;;;;;;;15.53;14.00;;;25.50;62.90;;;;;;5081299;28;20877;-62
2022/04/14 12:12:34;;;;;;;16.77;15.13;;;25.30;62.90;;;;;;5089040;28;20460;-62
2022/04/14 12:14:59;;;;;;;16.57;14.97;;;25.20;64.00;;;;;;5089866;28;20423;-62
2022/04/14 12:17:26;;;;;;;15.33;13.73;;;25.30;65.10;;;;;;5084888;28;20452;-62
2022/04/14 12:19:56;;;;;;;16.10;14.50;;;25.40;64.20;;;;;;5089980;28;20178;-61
2022/04/14 12:22:23;;;;;;;14.97;13.53;;;25.30;64.50;;;;;;5089591;28;20470;-62
2022/04/14 12:24:57;;;;;;;16.50;14.87;;;25.40;65.40;;;;;;5078711;28;20441;-61
2022/04/14 12:27:30;;;;;;;15.77;14.17;;;25.30;65.90;;;;;;5076821;28;20942;-60
2022/04/14 12:30:05;;;;;;;17.07;15.27;;;25.10;66.10;;;;;;5090016;28;20774;-61
2022/04/14 12:32:30;;;;;;;16.63;15.03;;;24.90;67.30;;;;;;5080312;28;20475;-62
2022/04/14 12:34:56;;;;;;;17.20;15.70;;;24.90;68.90;;;;;;5092970;28;20861;-61
2022/04/14 12:37:32;;;;;;;16.30;14.80;;;24.80;68.30;;;;;;5089059;28;20684;-61
2022/04/14 12:40:13;;;;;;;15.40;14.00;;;24.70;67.10;;;;;;5087419;28;20172;-61